KCLE

Cleveland-Hopkins International Airport

Cleveland, Ohio, USA
METAR KCLE 181414Z 01008KT 10SM FEW017 SCT025 BKN090 25/21 A2998 RMK AO2 T02500206 $
Observed Flight Rules
Aug-18 @ 14:14 UTC (37 minutes ago) Visual Flight Rules
Wind Visibility Clouds
10° at 8 knots 10 miles
  • Few at 1,700' AGL
  • Scattered at 2,500' AGL
  • Broken at 9,000' AGL
Temperatures Readings
Current 25°C / 77°F
Dewpoint 21°C / 70°F
Humidity 79%
Altimeter 29.98" Hg
Pressure 1015 hPa
Elevation 233
METAR KCLE 181414Z 01008KT 10SM FEW017 SCT025 BKN090 25/21 A2998 RMK AO2 T02500206 $
Observed Flight Rules
Aug-18 @ 14:14 UTC
(37 minutes ago)
VFR
Wind Visibility
10° at 8 knots 10 miles
Clouds
  • Few at 1,700' AGL
  • Scattered at 2,500' AGL
  • Broken at 9,000' AGL
Temperature Dewpoint
25°C / 77°F 21°C / 70°F
Humidity Altimeter Pressure
79% 29.98" Hg 1015 hPa